Time;durP1;ratioP1;P1;durP2;ratioP2;P2;SDS_P1;SDS_P2;PMS_P1;PMS_P2;Temp;Humidity;BMP_temperature;BMP_pressure;BME280_temperature;BME280_humidity;BME280_pressure;Samples;Min_cycle;Max_cycle;Signal;HPM_P1;HPM_P2
2022/06/28 06:31:09;;;;;;;;;;;;;;;24.89;100.00;98236.94;5738476;24;19962;-81
2022/06/28 06:33:52;;;;;;;;;;;;;;;24.77;100.00;98242.47;4827682;29;19961;-83
2022/06/28 06:36:40;;;;;;;;;;;;;;;24.72;100.00;98228.06;4825653;29;19955;-82
2022/06/28 06:39:09;;;;;;;;;;;;;;;24.82;100.00;98220.94;4810351;29;19956;-82
2022/06/28 06:41:36;;;;;;;;;;;;;;;24.89;100.00;98254.88;4810342;29;19948;-82
2022/06/28 06:44:03;;;;;;;;;;;;;;;24.95;100.00;98280.69;4811408;29;20250;-82
2022/06/28 06:46:33;;;;;;;;;;;;;;;25.03;100.00;98271.22;4795993;29;19980;-81
2022/06/28 06:49:00;;;;;;;;;;;;;;;24.99;100.00;98255.56;4810743;29;20331;-81
2022/06/28 06:51:30;;;;;;;;;;;;;;;25.09;100.00;98262.75;4811251;29;19964;-81
2022/06/28 06:53:58;;;;;;;;;;;;;;;25.11;100.00;98280.19;4803068;29;19946;-81
2022/06/28 06:56:26;;;;;;;;;;;;;;;25.18;100.00;98282.66;4811276;29;19950;-80
2022/06/28 06:58:53;;;;;;;;;;;;;;;25.26;100.00;98272.38;4810268;29;19957;-81
2022/06/28 07:01:21;;;;;;;;;;;;;;;25.29;100.00;98266.44;4827658;29;19953;-81
2022/06/28 07:04:09;;;;;;;;;;;;;;;25.26;100.00;98255.19;4798533;29;19955;-81
2022/06/28 07:06:37;;;;;;;;;;;;;;;25.24;100.00;98254.88;4827182;29;19958;-81
2022/06/28 07:09:04;;;;;;;;;;;;;;;25.20;100.00;98252.25;4810047;29;19960;-80
2022/06/28 07:11:33;;;;;;;;;;;;;;;25.19;100.00;98241.28;4810562;29;20512;-81
2022/06/28 07:14:00;;;;;;;;;;;;;;;25.15;100.00;98221.47;4810592;29;20245;-81
2022/06/28 07:16:28;;;;;;;;;;;;;;;25.10;100.00;98222.19;4810622;29;19953;-81
2022/06/28 07:18:56;;;;;;;;;;;;;;;25.06;100.00;98227.31;4809449;29;19954;-81
2022/06/28 07:21:23;;;;;;;;;;;;;;;25.03;100.00;98227.53;4827637;29;19955;-81
2022/06/28 07:23:51;;;;;;;;;;;;;;;25.01;100.00;98224.38;4810298;29;19956;-80
2022/06/28 07:26:19;;;;;;;;;;;;;;;25.06;100.00;98232.25;4798715;29;19949;-81
2022/06/28 07:28:46;;;;;;;;;;;;;;;24.95;100.00;98229.22;4826990;29;19957;-80
2022/06/28 07:31:15;;;;;;;;;;;;;;;24.96;100.00;98234.44;4807273;29;19972;-81
2022/06/28 07:33:42;;;;;;;;;;;;;;;24.95;100.00;98230.00;4795533;29;19960;-81
2022/06/28 07:36:11;;;;;;;;;;;;;;;24.94;100.00;98219.06;4810176;29;20244;-80
2022/06/28 07:38:39;;;;;;;;;;;;;;;24.90;100.00;98219.25;4810154;29;19950;-81
2022/06/28 07:41:19;;;;;;;;;;;;;;;24.85;100.00;98216.31;4826361;29;19958;-81
2022/06/28 07:44:04;;;;;;;;;;;;;;;24.81;100.00;98230.81;4825309;29;19977;-81
2022/06/28 07:46:32;;;;;;;;;;;;;;;24.78;100.00;98214.66;4809098;29;19950;-80
2022/06/28 07:49:00;;;;;;;;;;;;;;;24.77;100.00;98227.38;4809774;29;20344;-81
2022/06/28 07:54:18;;;;;;;;;;;;;;;24.76;100.00;98226.56;4813331;29;20537;-81
2022/06/28 07:56:58;;;;;;;;;;;;;;;24.72;100.00;98228.06;4828283;29;19955;-79
2022/06/28 07:59:27;;;;;;;;;;;;;;;24.71;100.00;98232.97;4813870;29;19950;-79
2022/06/28 08:01:54;;;;;;;;;;;;;;;24.72;100.00;98230.91;4813834;29;19957;-79
2022/06/28 08:04:28;;;;;;;;;;;;;;;24.71;100.00;98223.59;4813253;29;19966;-81
2022/06/28 08:06:58;;;;;;;;;;;;;;;24.73;100.00;98221.03;4813972;29;20261;-81
2022/06/28 08:09:26;;;;;;;;;;;;;;;24.71;100.00;98212.97;4813409;29;19951;-80
2022/06/28 08:11:53;;;;;;;;;;;;;;;24.76;100.00;98205.75;4813892;29;20253;-83
2022/06/28 08:14:21;;;;;;;;;;;;;;;24.80;100.00;98204.28;4814063;29;20256;-83
2022/06/28 08:16:48;;;;;;;;;;;;;;;24.75;100.00;98193.50;4813973;29;19960;-83
2022/06/28 08:19:15;;;;;;;;;;;;;;;24.72;100.00;98188.78;4813587;29;19950;-83
2022/06/28 08:21:47;;;;;;;;;;;;;;;24.77;100.00;98195.94;4813714;29;20244;-79
2022/06/28 08:24:15;;;;;;;;;;;;;;;24.72;100.00;98197.38;4810622;29;19950;-79
2022/06/28 08:26:43;;;;;;;;;;;;;;;24.83;100.00;98193.94;4811802;29;19954;-79
2022/06/28 08:29:15;;;;;;;;;;;;;;;24.90;100.00;98198.44;4812654;29;19957;-79
2022/06/28 08:31:43;;;;;;;;;;;;;;;24.96;100.00;98202.19;4819886;29;19971;-80
2022/06/28 08:34:11;;;;;;;;;;;;;;;24.88;100.00;98196.09;4830226;29;19955;-80
2022/06/28 08:36:38;;;;;;;;;;;;;;;24.87;100.00;98193.75;4828138;29;20394;-80
2022/06/28 08:39:06;;;;;;;;;;;;;;;24.80;100.00;98192.06;4829038;29;19950;-80
2022/06/28 08:41:34;;;;;;;;;;;;;;;24.96;100.00;98191.53;4828499;29;19958;-80
2022/06/28 08:44:01;;;;;;;;;;;;;;;24.90;100.00;98196.38;4829356;29;19944;-80
2022/06/28 08:46:31;;;;;;;;;;;;;;;25.01;100.00;98190.03;4828604;29;20012;-80
2022/06/28 08:49:01;;;;;;;;;;;;;;;25.03;100.00;98188.25;4828405;29;19965;-79
2022/06/28 08:51:31;;;;;;;;;;;;;;;25.37;100.00;98203.81;4827737;29;19977;-79
2022/06/28 08:54:00;;;;;;;;;;;;;;;25.54;100.00;98204.84;4828669;29;20254;-79
2022/06/28 08:56:27;;;;;;;;;;;;;;;25.85;100.00;98213.56;4819503;29;19953;-80
2022/06/28 08:58:56;;;;;;;;;;;;;;;25.96;100.00;98212.91;4828434;29;19966;-80
2022/06/28 09:01:23;;;;;;;;;;;;;;;26.03;100.00;98215.34;4827212;29;20339;-80
2022/06/28 09:03:52;;;;;;;;;;;;;;;26.04;100.00;98208.31;4815062;29;19984;-79
2022/06/28 09:06:19;;;;;;;;;;;;;;;26.19;100.00;98211.13;4828666;29;19958;-79
2022/06/28 09:08:46;;;;;;;;;;;;;;;26.41;100.00;98197.00;4826555;29;19950;-80
2022/06/28 09:11:14;;;;;;;;;;;;;;;26.64;100.00;98187.28;4827798;29;19948;-79
2022/06/28 09:13:41;;;;;;;;;;;;;;;26.64;100.00;98184.41;4828040;29;19949;-79
2022/06/28 09:16:08;;;;;;;;;;;;;;;26.78;100.00;98174.91;4823331;29;20525;-78
2022/06/28 09:18:35;;;;;;;;;;;;;;;26.66;100.00;98171.13;4823234;29;19953;-79
2022/06/28 09:21:04;;;;;;;;;;;;;;;26.57;100.00;98162.72;4827547;29;20256;-79
2022/06/28 09:23:33;;;;;;;;;;;;;;;26.44;100.00;98148.00;4828255;29;19958;-79
2022/06/28 09:26:07;;;;;;;;;;;;;;;26.39;100.00;98151.63;4827970;29;19948;-79
2022/06/28 09:28:38;;;;;;;;;;;;;;;26.60;100.00;98149.44;4827841;29;20379;-80
2022/06/28 09:31:13;;;;;;;;;;;;;;;26.34;100.00;98148.69;4828324;29;19948;-80
2022/06/28 09:33:42;;;;;;;;;;;;;;;26.43;100.00;98152.19;4827843;29;19952;-81
2022/06/28 09:36:10;;;;;;;;;;;;;;;26.34;100.00;98166.69;4828387;29;19945;-81
2022/06/28 09:38:38;;;;;;;;;;;;;;;26.40;100.00;98179.00;4828486;29;19953;-81
2022/06/28 09:41:17;;;;;;;;;;;;;;;26.45;100.00;98186.88;4828231;29;20326;-80
2022/06/28 09:43:52;;;;;;;;;;;;;;;26.36;100.00;98192.00;4826912;29;19956;-81
2022/06/28 09:46:19;;;;;;;;;;;;;;;26.44;100.00;98213.16;4824485;29;19960;-81
2022/06/28 09:48:50;;;;;;;;;;;;;;;26.55;100.00;98233.34;4826297;29;20535;-82
2022/06/28 09:51:23;;;;;;;;;;;;;;;26.63;100.00;98218.03;4827561;29;19960;-81
2022/06/28 09:53:52;;;;;;;;;;;;;;;26.63;100.00;98209.44;4825436;29;19980;-84
2022/06/28 09:56:41;;;;;;;;;;;;;;;26.66;100.00;98204.75;4826224;29;19966;-83
2022/06/28 09:59:09;;;;;;;;;;;;;;;26.66;100.00;98194.09;4823510;29;20359;-80
2022/06/28 10:01:36;;;;;;;;;;;;;;;26.53;100.00;98172.88;4825477;29;19960;-79
2022/06/28 10:04:04;;;;;;;;;;;;;;;26.35;100.00;98150.28;4826695;29;19949;-80
2022/06/28 10:06:31;;;;;;;;;;;;;;;26.33;100.00;98159.41;4827584;29;19980;-81
2022/06/28 10:08:59;;;;;;;;;;;;;;;26.43;100.00;98171.47;4827675;29;19957;-79
2022/06/28 10:15:00;;;;;;;;;;;;;;;26.67;100.00;98200.63;4827267;29;19956;-79
2022/06/28 10:17:04;;;;;;;;;;;;;;;26.70;100.00;98243.41;4826982;29;19955;-83
2022/06/28 10:19:32;;;;;;;;;;;;;;;26.73;100.00;98248.13;4827700;29;19948;-84
2022/06/28 10:22:00;;;;;;;;;;;;;;;26.75;100.00;98270.59;4827439;29;20345;-84
2022/06/28 10:25:00;;;;;;;;;;;;;;;26.82;100.00;98298.84;4811582;29;20264;-80
2022/06/28 10:27:28;;;;;;;;;;;;;;;26.85;100.00;98300.69;4777625;29;19963;-83
2022/06/28 10:30:16;;;;;;;;;;;;;;;26.81;100.00;98303.00;4826869;29;20342;-84
2022/06/28 10:32:43;;;;;;;;;;;;;;;26.85;100.00;98325.75;4826829;29;19977;-83
2022/06/28 10:35:31;;;;;;;;;;;;;;;26.81;100.00;98345.25;4827088;29;19964;-83
2022/06/28 10:38:09;;;;;;;;;;;;;;;26.65;100.00;98356.00;4813725;29;19947;-83
2022/06/28 10:40:47;;;;;;;;;;;;;;;26.66;100.00;98351.06;4827251;29;19955;-83
2022/06/28 10:43:15;;;;;;;;;;;;;;;26.55;100.00;98343.16;4827099;29;20336;-83
2022/06/28 10:46:04;;;;;;;;;;;;;;;26.57;100.00;98336.88;4826375;29;19953;-83
2022/06/28 10:48:51;;;;;;;;;;;;;;;26.48;100.00;98317.75;4829818;29;20281;-83
2022/06/28 10:51:19;;;;;;;;;;;;;;;26.35;100.00;98254.28;4815660;29;19959;-78
2022/06/28 10:54:02;;;;;;;;;;;;;;;26.40;100.00;98267.91;4826469;29;19969;-78
2022/06/28 10:56:30;;;;;;;;;;;;;;;26.39;100.00;98300.72;4826940;29;20563;-80
2022/06/28 10:58:58;;;;;;;;;;;;;;;26.30;100.00;98320.94;4826674;29;19970;-80
2022/06/28 11:01:44;;;;;;;;;;;;;;;26.31;100.00;98330.34;4827481;29;19959;-78
2022/06/28 11:04:12;;;;;;;;;;;;;;;26.27;100.00;98310.47;4826808;29;19968;-80
2022/06/28 11:06:40;;;;;;;;;;;;;;;26.28;100.00;98288.34;4825868;29;19984;-80
2022/06/28 11:09:31;;;;;;;;;;;;;;;26.24;100.00;98268.47;4832637;29;19951;-80
2022/06/28 11:12:11;;;;;;;;;;;;;;;26.20;100.00;98253.59;4787258;29;19958;-80
2022/06/28 11:14:47;;;;;;;;;;;;;;;26.17;100.00;98251.72;4830341;29;19959;-80
2022/06/28 11:17:15;;;;;;;;;;;;;;;26.06;100.00;98243.00;4816738;29;20335;-80
2022/06/28 11:19:50;;;;;;;;;;;;;;;25.98;100.00;98241.84;4825729;29;19956;-80
2022/06/28 11:22:19;;;;;;;;;;;;;;;25.92;100.00;98263.94;4821068;29;19952;-80
2022/06/28 11:24:47;;;;;;;;;;;;;;;25.74;100.00;98261.34;4825709;29;19962;-80
2022/06/28 11:27:21;;;;;;;;;;;;;;;25.69;100.00;98273.53;4821969;29;19952;-79
2022/06/28 11:29:49;;;;;;;;;;;;;;;25.61;100.00;98266.63;4808930;29;19951;-80
2022/06/28 11:32:18;;;;;;;;;;;;;;;25.62;100.00;98265.34;4819215;29;19976;-80
2022/06/28 11:34:56;;;;;;;;;;;;;;;25.62;100.00;98259.63;4818824;29;19951;-80
2022/06/28 11:37:24;;;;;;;;;;;;;;;25.44;100.00;98254.94;4819519;29;19951;-81
2022/06/28 11:39:55;;;;;;;;;;;;;;;25.38;100.00;98257.69;4819101;29;19955;-79
2022/06/28 11:42:22;;;;;;;;;;;;;;;25.27;100.00;98226.06;4807993;29;19962;-79
2022/06/28 11:44:50;;;;;;;;;;;;;;;25.24;100.00;98229.91;4807997;29;19956;-77
2022/06/28 11:47:18;;;;;;;;;;;;;;;25.23;100.00;98222.63;4800700;29;20706;-78
2022/06/28 11:49:49;;;;;;;;;;;;;;;25.18;100.00;98223.34;4825381;29;19955;-78
2022/06/28 11:52:17;;;;;;;;;;;;;;;25.10;100.00;98227.91;4826384;29;19961;-78
2022/06/28 11:54:52;;;;;;;;;;;;;;;25.09;100.00;98229.16;4826137;29;19954;-79
2022/06/28 11:57:19;;;;;;;;;;;;;;;25.07;100.00;98240.34;4819251;29;19952;-79
2022/06/28 11:59:54;;;;;;;;;;;;;;;25.00;100.00;98251.41;4818936;29;19955;-79
2022/06/28 12:02:41;;;;;;;;;;;;;;;25.02;100.00;98263.94;4817421;29;19952;-80
2022/06/28 12:05:09;;;;;;;;;;;;;;;25.05;100.00;98250.69;4820038;29;19977;-81
2022/06/28 12:07:43;;;;;;;;;;;;;;;25.01;100.00;98239.47;4817555;29;20270;-81
2022/06/28 12:10:21;;;;;;;;;;;;;;;25.08;100.00;98232.53;4806067;29;19950;-80
2022/06/28 12:12:48;;;;;;;;;;;;;;;25.06;100.00;98221.59;4819656;29;20254;-81
2022/06/28 12:15:23;;;;;;;;;;;;;;;24.95;100.00;98209.19;4821119;29;20335;-80
2022/06/28 12:17:50;;;;;;;;;;;;;;;24.90;100.00;98222.13;4824408;29;20534;-80
2022/06/28 12:20:17;;;;;;;;;;;;;;;24.67;100.00;98220.94;4823985;29;19953;-81
2022/06/28 12:22:54;;;;;;;;;;;;;;;24.56;100.00;98215.03;4825484;29;19954;-81
2022/06/28 12:25:21;;;;;;;;;;;;;;;24.66;100.00;98219.38;4820151;29;19953;-81
2022/06/28 12:27:49;;;;;;;;;;;;;;;24.64;100.00;98213.38;4825437;29;20250;-81
2022/06/28 12:30:16;;;;;;;;;;;;;;;24.65;100.00;98205.56;4825239;29;20369;-81
2022/06/28 12:32:44;;;;;;;;;;;;;;;24.69;100.00;98211.88;4827252;29;19979;-81
2022/06/28 12:35:14;;;;;;;;;;;;;;;24.64;100.00;98199.06;4825073;29;19957;-81
2022/06/28 12:37:42;;;;;;;;;;;;;;;24.66;100.00;98182.19;4827064;29;19957;-81
2022/06/28 12:40:10;;;;;;;;;;;;;;;24.57;100.00;98165.16;4832387;29;19957;-81
2022/06/28 12:42:38;;;;;;;;;;;;;;;24.67;100.00;98160.88;4834341;29;19958;-81
2022/06/28 12:45:06;;;;;;;;;;;;;;;24.75;100.00;98172.69;4827403;29;19948;-81
2022/06/28 12:47:35;;;;;;;;;;;;;;;24.80;100.00;98166.31;4827314;29;19953;-81
2022/06/28 12:50:05;;;;;;;;;;;;;;;24.80;100.00;98172.03;4823034;29;19978;-81
2022/06/28 12:52:33;;;;;;;;;;;;;;;24.84;100.00;98166.91;4827565;29;19960;-81
2022/06/28 12:55:01;;;;;;;;;;;;;;;24.90;100.00;98159.19;4828079;29;19950;-81
2022/06/28 12:57:29;;;;;;;;;;;;;;;24.98;100.00;98159.56;4829982;29;19950;-81
2022/06/28 12:59:56;;;;;;;;;;;;;;;24.98;100.00;98143.19;4827342;29;19950;-80
2022/06/28 13:02:24;;;;;;;;;;;;;;;24.87;100.00;98120.13;4827861;29;20034;-83
2022/06/28 13:04:51;;;;;;;;;;;;;;;24.99;100.00;98132.53;4828502;29;20351;-82
2022/06/28 13:07:20;;;;;;;;;;;;;;;25.02;100.00;98135.16;4828033;29;20244;-79
2022/06/28 13:09:48;;;;;;;;;;;;;;;24.98;100.00;98128.88;4833709;29;19977;-79
2022/06/28 13:12:16;;;;;;;;;;;;;;;24.99;100.00;98150.47;4827747;29;19950;-80
2022/06/28 13:14:46;;;;;;;;;;;;;;;25.14;100.00;98165.50;4812091;29;19969;-79
2022/06/28 13:17:19;;;;;;;;;;;;;;;25.24;100.00;98171.88;4827857;29;19950;-79
2022/06/28 13:19:47;;;;;;;;;;;;;;;25.45;100.00;98173.50;4827795;29;19954;-84
2022/06/28 13:22:21;;;;;;;;;;;;;;;25.53;100.00;98162.41;4828651;29;20344;-84
2022/06/28 13:24:49;;;;;;;;;;;;;;;25.59;100.00;98172.63;4827918;29;20378;-78
2022/06/28 13:27:16;;;;;;;;;;;;;;;25.56;100.00;98159.31;4828209;29;19961;-78
2022/06/28 13:29:43;;;;;;;;;;;;;;;25.55;100.00;98140.59;4827345;29;19961;-78
2022/06/28 13:32:10;;;;;;;;;;;;;;;25.43;100.00;98121.66;4827472;29;19988;-78
2022/06/28 13:34:38;;;;;;;;;;;;;;;25.40;100.00;98114.88;4827978;29;20384;-78
2022/06/28 13:37:05;;;;;;;;;;;;;;;25.33;100.00;98094.47;4819071;29;19957;-78
2022/06/28 13:39:32;;;;;;;;;;;;;;;25.29;100.00;98079.56;4826067;29;19952;-78
2022/06/28 13:42:00;;;;;;;;;;;;;;;25.33;100.00;98088.75;4827121;29;19949;-80
2022/06/28 13:44:27;;;;;;;;;;;;;;;25.40;100.00;98094.03;4827443;29;19950;-77
2022/06/28 13:47:00;;;;;;;;;;;;;;;25.43;100.00;98087.31;4810766;29;19954;-78
2022/06/28 13:49:28;;;;;;;;;;;;;;;25.44;100.00;98101.16;4824172;29;20444;-78
2022/06/28 13:51:55;;;;;;;;;;;;;;;25.43;100.00;98110.22;4827670;29;20361;-79
2022/06/28 13:54:22;;;;;;;;;;;;;;;25.48;100.00;98108.72;4828582;29;19965;-76
2022/06/28 13:56:54;;;;;;;;;;;;;;;25.43;100.00;98110.22;4836754;29;19951;-78
2022/06/28 13:59:21;;;;;;;;;;;;;;;25.43;100.00;98119.56;4833431;29;19950;-78
2022/06/28 14:01:49;;;;;;;;;;;;;;;25.44;100.00;98121.19;4836564;29;20351;-78
2022/06/28 14:04:16;;;;;;;;;;;;;;;25.47;100.00;98113.66;4830892;29;19959;-78
2022/06/28 14:06:43;;;;;;;;;;;;;;;25.53;100.00;98116.59;4831500;29;19956;-78
2022/06/28 14:09:11;;;;;;;;;;;;;;;25.43;100.00;98104.50;4827203;29;19978;-78
2022/06/28 14:11:39;;;;;;;;;;;;;;;25.35;100.00;98094.75;4827115;29;19960;-77
2022/06/28 14:14:08;;;;;;;;;;;;;;;25.36;100.00;98120.00;4827351;29;19975;-78
2022/06/28 14:16:36;;;;;;;;;;;;;;;25.37;100.00;98127.31;4827290;29;19950;-78
2022/06/28 14:19:03;;;;;;;;;;;;;;;25.39;100.00;98135.41;4827753;29;19948;-78
2022/06/28 14:21:30;;;;;;;;;;;;;;;25.40;100.00;98140.63;4827543;29;19961;-78
2022/06/28 14:23:58;;;;;;;;;;;;;;;25.42;100.00;98129.47;4827346;29;19960;-78
2022/06/28 14:26:25;;;;;;;;;;;;;;;25.37;100.00;98113.00;4826464;29;19950;-79
2022/06/28 14:28:56;;;;;;;;;;;;;;;25.36;100.00;98107.75;4826519;29;19957;-80
2022/06/28 14:31:24;;;;;;;;;;;;;;;25.37;100.00;98107.28;4827315;29;19981;-81
2022/06/28 14:34:13;;;;;;;;;;;;;;;25.39;100.00;98095.31;4824170;29;19966;-81
2022/06/28 14:36:41;;;;;;;;;;;;;;;25.40;100.00;98094.84;4834666;29;19958;-82
2022/06/28 14:39:08;;;;;;;;;;;;;;;25.43;100.00;98090.19;4829600;29;20243;-82
2022/06/28 14:41:37;;;;;;;;;;;;;;;25.47;100.00;98067.84;4825666;29;19961;-82
2022/06/28 14:44:04;;;;;;;;;;;;;;;25.44;100.00;98032.44;4827436;29;19949;-81
2022/06/28 14:46:32;;;;;;;;;;;;;;;25.55;100.00;98017.47;4821349;29;19945;-82
2022/06/28 14:48:59;;;;;;;;;;;;;;;25.51;100.00;98001.75;4825650;29;19956;-81
2022/06/28 14:51:27;;;;;;;;;;;;;;;25.52;100.00;97980.44;4826105;29;19948;-81
2022/06/28 14:53:54;;;;;;;;;;;;;;;25.57;100.00;97976.84;4826631;29;19969;-81
2022/06/28 14:56:21;;;;;;;;;;;;;;;25.54;100.00;97960.69;4826467;29;19957;-81
2022/06/28 14:58:49;;;;;;;;;;;;;;;25.46;100.00;97960.34;4825254;29;20250;-81
2022/06/28 15:01:16;;;;;;;;;;;;;;;25.44;100.00;97960.03;4822231;29;19967;-82
2022/06/28 15:03:43;;;;;;;;;;;;;;;25.37;100.00;97955.56;4825994;29;20250;-81
2022/06/28 15:06:14;;;;;;;;;;;;;;;25.34;100.00;97953.69;4831427;29;19978;-81
2022/06/28 15:08:42;;;;;;;;;;;;;;;25.50;100.00;97968.72;4826353;29;19949;-79
2022/06/28 15:11:11;;;;;;;;;;;;;;;25.63;100.00;97994.88;4826753;29;19956;-82
2022/06/28 15:13:38;;;;;;;;;;;;;;;25.63;100.00;97983.44;4825472;29;19959;-81
2022/06/28 15:16:06;;;;;;;;;;;;;;;25.66;100.00;97948.81;4826243;29;19956;-82
2022/06/28 15:18:34;;;;;;;;;;;;;;;25.68;100.00;97956.88;4825568;29;19964;-82
2022/06/28 15:21:03;;;;;;;;;;;;;;;25.75;100.00;97985.09;4825994;29;19987;-83
2022/06/28 15:31:48;;;;;;;;;;;;;;;25.89;100.00;97984.94;4828259;29;19975;-83
2022/06/28 15:34:15;;;;;;;;;;;;;;;25.89;100.00;97975.56;4824984;29;19968;-82
2022/06/28 15:36:43;;;;;;;;;;;;;;;25.67;100.00;97933.22;4826295;29;19949;-83
2022/06/28 15:39:10;;;;;;;;;;;;;;;25.76;100.00;97955.13;4823947;29;20339;-83
2022/06/28 15:41:37;;;;;;;;;;;;;;;25.77;100.00;97945.25;4825695;29;19949;-82
2022/06/28 15:44:05;;;;;;;;;;;;;;;25.95;100.00;97913.34;4828130;29;19967;-81
2022/06/28 15:46:32;;;;;;;;;;;;;;;25.92;100.00;97923.75;4826628;29;19953;-82
2022/06/28 15:48:59;;;;;;;;;;;;;;;26.04;100.00;97916.03;4825470;29;19960;-82
2022/06/28 15:51:27;;;;;;;;;;;;;;;25.98;100.00;97929.53;4826067;29;19953;-82
2022/06/28 15:53:54;;;;;;;;;;;;;;;26.09;100.00;97926.75;4827871;29;19949;-81
2022/06/28 15:56:22;;;;;;;;;;;;;;;26.22;100.00;97918.50;4825844;29;19953;-80
2022/06/28 15:58:51;;;;;;;;;;;;;;;26.36;100.00;97919.63;4824964;29;19949;-81
2022/06/28 16:01:18;;;;;;;;;;;;;;;26.36;100.00;97920.38;4825422;29;19961;-80
2022/06/28 16:03:47;;;;;;;;;;;;;;;26.40;100.00;97918.09;4824402;29;20363;-80
2022/06/28 16:06:14;;;;;;;;;;;;;;;26.25;100.00;97900.28;4825731;29;19949;-81
2022/06/28 16:08:41;;;;;;;;;;;;;;;26.13;100.00;97880.66;4825435;29;19960;-80
2022/06/28 16:11:09;;;;;;;;;;;;;;;26.16;100.00;97883.31;4826064;29;19960;-80
2022/06/28 16:13:36;;;;;;;;;;;;;;;26.11;100.00;97884.06;4829684;29;19947;-82
2022/06/28 16:16:03;;;;;;;;;;;;;;;26.07;100.00;97880.59;4829155;29;19971;-79
2022/06/28 16:18:31;;;;;;;;;;;;;;;26.11;100.00;97889.78;4828532;29;19949;-79
2022/06/28 16:20:58;;;;;;;;;;;;;;;26.04;100.00;97879.53;4827860;29;19969;-69
2022/06/28 16:23:25;;;;;;;;;;;;;;;26.05;100.00;97871.72;4826194;29;19958;-70
2022/06/28 16:25:53;;;;;;;;;;;;;;;26.02;100.00;97875.63;4829150;29;19950;-70
2022/06/28 16:28:21;;;;;;;;;;;;;;;25.94;100.00;97861.00;4827534;29;19954;-70
2022/06/28 16:30:49;;;;;;;;;;;;;;;25.88;100.00;97853.66;4829561;29;19959;-70
2022/06/28 16:33:19;;;;;;;;;;;;;;;25.79;100.00;97874.72;4829593;29;19977;-70
2022/06/28 16:35:46;;;;;;;;;;;;;;;25.79;100.00;97899.69;4828573;29;19976;-70
2022/06/28 16:38:14;;;;;;;;;;;;;;;25.82;100.00;97927.34;4829442;29;19952;-70
2022/06/28 16:40:41;;;;;;;;;;;;;;;25.81;100.00;97914.28;4829120;29;19954;-70
2022/06/28 16:43:09;;;;;;;;;;;;;;;25.83;100.00;97892.44;4829046;29;20252;-70
2022/06/28 16:45:37;;;;;;;;;;;;;;;25.85;100.00;97883.31;4829026;29;19956;-70
2022/06/28 16:48:04;;;;;;;;;;;;;;;25.84;100.00;97885.44;4829431;29;20229;-70
2022/06/28 16:50:32;;;;;;;;;;;;;;;25.77;100.00;97900.22;4828586;29;19959;-70
2022/06/28 16:52:59;;;;;;;;;;;;;;;25.74;100.00;97889.00;4828514;29;19958;-70
2022/06/28 16:55:27;;;;;;;;;;;;;;;25.67;100.00;97901.72;4827885;29;19979;-70
2022/06/28 16:57:54;;;;;;;;;;;;;;;25.62;100.00;97893.06;4827813;29;19959;-70
2022/06/28 17:00:23;;;;;;;;;;;;;;;25.56;100.00;97906.53;4828204;29;19952;-70
2022/06/28 17:02:51;;;;;;;;;;;;;;;25.53;100.00;97907.59;4828941;29;19955;-70
2022/06/28 17:05:18;;;;;;;;;;;;;;;25.47;100.00;97901.00;4828421;29;19964;-70
2022/06/28 17:07:45;;;;;;;;;;;;;;;25.38;100.00;97922.00;4828541;29;19951;-70
2022/06/28 17:10:13;;;;;;;;;;;;;;;25.34;100.00;97925.06;4812453;29;20343;-70
2022/06/28 17:12:42;;;;;;;;;;;;;;;25.33;100.00;97914.91;4828005;29;20372;-70
2022/06/28 17:15:10;;;;;;;;;;;;;;;25.22;100.00;97923.41;4828774;29;19966;-70
2022/06/28 17:17:37;;;;;;;;;;;;;;;25.10;100.00;97935.25;4827239;29;19964;-70
2022/06/28 17:20:06;;;;;;;;;;;;;;;24.93;100.00;97943.66;4826719;29;19957;-70
2022/06/28 17:22:34;;;;;;;;;;;;;;;24.72;100.00;97957.16;4823917;29;19969;-70
2022/06/28 17:25:01;;;;;;;;;;;;;;;24.60;100.00;97974.69;4827691;29;19952;-70
2022/06/28 17:27:28;;;;;;;;;;;;;;;24.37;100.00;97999.31;4827177;29;20274;-70
2022/06/28 17:29:55;;;;;;;;;;;;;;;24.15;100.00;98014.06;4827358;29;19950;-70
2022/06/28 17:32:22;;;;;;;;;;;;;;;24.08;100.00;97982.25;4827480;29;19978;-70
2022/06/28 17:34:50;;;;;;;;;;;;;;;24.02;100.00;97965.00;4826574;29;19959;-70
2022/06/28 17:37:17;;;;;;;;;;;;;;;23.93;100.00;97962.28;4826724;29;19965;-70
2022/06/28 17:39:44;;;;;;;;;;;;;;;23.78;100.00;97986.41;4827574;29;19951;-70
2022/06/28 17:42:12;;;;;;;;;;;;;;;23.59;100.00;98005.03;4827974;29;19954;-69
2022/06/28 17:44:40;;;;;;;;;;;;;;;23.40;100.00;98021.59;4828057;29;19951;-69
2022/06/28 17:47:07;;;;;;;;;;;;;;;23.35;100.00;97988.00;4828502;29;19976;-69
2022/06/28 17:49:35;;;;;;;;;;;;;;;23.30;100.00;97923.81;4827144;29;20365;-70
2022/06/28 17:52:06;;;;;;;;;;;;;;;23.29;100.00;97898.66;4804508;29;19954;-70
2022/06/28 17:54:34;;;;;;;;;;;;;;;23.20;100.00;97942.34;4826709;29;19954;-70
2022/06/28 17:57:01;;;;;;;;;;;;;;;23.08;100.00;97976.84;4826631;29;19973;-70
2022/06/28 17:59:29;;;;;;;;;;;;;;;23.05;100.00;97977.81;4826809;29;19957;-70
2022/06/28 18:01:56;;;;;;;;;;;;;;;23.07;100.00;97956.09;4826257;29;20017;-70
2022/06/28 18:04:25;;;;;;;;;;;;;;;23.04;100.00;97937.09;4826256;29;20384;-70
2022/06/28 18:06:52;;;;;;;;;;;;;;;23.00;100.00;97953.63;4826122;29;20358;-69
2022/06/28 18:09:20;;;;;;;;;;;;;;;23.03;100.00;97951.84;4827355;29;19949;-69
2022/06/28 18:11:47;;;;;;;;;;;;;;;23.03;100.00;97949.81;4826831;29;19948;-69
2022/06/28 18:14:15;;;;;;;;;;;;;;;23.06;100.00;97933.78;4826466;29;19952;-69
2022/06/28 18:16:44;;;;;;;;;;;;;;;23.08;100.00;97945.47;4826686;29;20002;-69
2022/06/28 18:19:11;;;;;;;;;;;;;;;23.05;100.00;97955.81;4826542;29;20165;-70
2022/06/28 18:21:39;;;;;;;;;;;;;;;22.98;100.00;97933.38;4827585;29;20206;-70
2022/06/28 18:24:06;;;;;;;;;;;;;;;22.94;100.00;97938.47;4826400;29;19961;-81
2022/06/28 18:26:34;;;;;;;;;;;;;;;22.91;100.00;97933.75;4827111;29;19953;-81
2022/06/28 18:29:01;;;;;;;;;;;;;;;22.88;100.00;97934.72;4824645;29;19947;-79
2022/06/28 18:31:29;;;;;;;;;;;;;;;22.83;100.00;97930.50;4826968;29;19975;-79
2022/06/28 18:33:57;;;;;;;;;;;;;;;22.79;100.00;97931.97;4826439;29;20367;-80
2022/06/28 18:36:24;;;;;;;;;;;;;;;22.75;100.00;97937.84;4822940;29;19995;-80
2022/06/28 18:38:55;;;;;;;;;;;;;;;22.74;100.00;97944.06;4821781;29;19947;-78
2022/06/28 18:41:22;;;;;;;;;;;;;;;22.68;100.00;97954.53;4827502;29;20393;-79
2022/06/28 18:43:51;;;;;;;;;;;;;;;22.66;100.00;97946.50;4826282;29;19949;-78
2022/06/28 18:46:20;;;;;;;;;;;;;;;22.60;100.00;97950.44;4826596;29;19952;-79
2022/06/28 18:48:47;;;;;;;;;;;;;;;22.53;100.00;97951.63;4826531;29;19955;-78
2022/06/28 18:51:15;;;;;;;;;;;;;;;22.54;100.00;97941.00;4825047;29;20344;-81
2022/06/28 18:53:42;;;;;;;;;;;;;;;22.55;100.00;97946.22;4826157;29;21224;-78
2022/06/28 18:56:09;;;;;;;;;;;;;;;22.53;100.00;97954.47;4824676;29;19970;-78
2022/06/28 18:58:37;;;;;;;;;;;;;;;22.52;100.00;97957.81;4827357;29;20325;-77
2022/06/28 19:01:05;;;;;;;;;;;;;;;22.51;100.00;97956.22;4826736;29;19947;-78
2022/06/28 19:03:32;;;;;;;;;;;;;;;22.55;100.00;97965.38;4826110;29;19964;-77
2022/06/28 19:05:59;;;;;;;;;;;;;;;22.45;100.00;97961.81;4825786;29;20374;-77
2022/06/28 19:08:28;;;;;;;;;;;;;;;22.43;100.00;97967.22;4809976;29;19948;-75
2022/06/28 19:10:56;;;;;;;;;;;;;;;22.46;100.00;97974.78;4821414;29;20329;-75
2022/06/28 19:13:23;;;;;;;;;;;;;;;22.45;100.00;97963.88;4824935;29;20296;-75
2022/06/28 19:15:51;;;;;;;;;;;;;;;22.41;100.00;97969.75;4825350;29;19961;-78
2022/06/28 19:18:18;;;;;;;;;;;;;;;22.37;100.00;97980.56;4824782;29;20344;-76
2022/06/28 19:20:45;;;;;;;;;;;;;;;22.31;100.00;97998.78;4824945;29;19959;-76
2022/06/28 19:23:12;;;;;;;;;;;;;;;22.29;100.00;98013.50;4825492;29;19963;-75
2022/06/28 19:25:40;;;;;;;;;;;;;;;22.25;100.00;98032.84;4825529;29;19958;-75
2022/06/28 19:28:08;;;;;;;;;;;;;;;22.25;100.00;98055.66;4826235;29;19947;-75
2022/06/28 19:30:35;;;;;;;;;;;;;;;22.21;100.00;98074.94;4825160;29;19948;-74